createdAt,value
2019-01-11T00:00:09.704Z,101308.83
2019-01-11T00:02:36.512Z,101314.80
2019-01-11T00:05:03.568Z,101309.08
2019-01-11T00:07:30.308Z,101305.83
2019-01-11T00:09:57.089Z,101311.33
2019-01-11T00:12:23.824Z,101307.34
2019-01-11T00:14:50.597Z,101313.86
2019-01-11T00:17:17.356Z,101308.63
2019-01-11T00:19:44.132Z,101309.01
2019-01-11T00:22:10.992Z,101291.21
2019-01-11T00:24:37.750Z,101297.22
2019-01-11T00:27:04.522Z,101311.61
2019-01-11T00:29:31.281Z,101312.50
2019-01-11T00:31:58.047Z,101301.81
2019-01-11T00:34:24.788Z,101299.22
2019-01-11T00:36:51.540Z,101300.97
2019-01-11T00:39:18.324Z,101312.38
2019-01-11T00:41:45.092Z,101310.69
2019-01-11T00:44:11.840Z,101313.65
2019-01-11T00:46:38.604Z,101307.16
2019-01-11T00:49:05.363Z,101312.45
2019-01-11T00:51:32.120Z,101308.37
2019-01-11T00:53:58.872Z,101317.39
2019-01-11T00:56:25.631Z,101310.62
2019-01-11T00:58:52.392Z,101319.75
2019-01-11T01:01:19.145Z,101314.68
2019-01-11T01:03:45.996Z,101313.12
2019-01-11T01:06:12.743Z,101322.30
2019-01-11T01:08:39.504Z,101312.38
2019-01-11T01:11:06.256Z,101321.28
2019-01-11T01:13:33.025Z,101322.23
2019-01-11T01:15:59.783Z,101326.02
2019-01-11T01:18:26.563Z,101310.98
2019-01-11T01:20:53.311Z,101314.44
2019-01-11T01:23:20.061Z,101315.61
2019-01-11T01:25:46.804Z,101320.45
2019-01-11T01:28:13.577Z,101318.34
2019-01-11T01:30:40.324Z,101321.16
2019-01-11T01:33:07.092Z,101322.91
2019-01-11T01:35:33.821Z,101320.38
2019-01-11T01:38:00.625Z,101327.64
2019-01-11T01:40:27.368Z,101322.98
2019-01-11T01:42:54.136Z,101318.91
2019-01-11T01:45:20.924Z,101324.09
2019-01-11T01:47:47.692Z,101326.13
2019-01-11T01:50:14.443Z,101325.97
2019-01-11T01:52:41.199Z,101328.77
2019-01-11T01:55:08.980Z,101315.77
2019-01-11T01:57:35.755Z,101321.87
2019-01-11T02:00:02.865Z,101323.29
2019-01-11T02:02:29.632Z,101321.36
2019-01-11T02:04:56.445Z,101323.52
2019-01-11T02:07:23.204Z,101326.17
2019-01-11T02:09:49.988Z,101328.50
2019-01-11T02:12:16.738Z,101333.55
2019-01-11T02:14:43.529Z,101329.61
2019-01-11T02:17:10.501Z,101332.50
2019-01-11T02:19:37.260Z,101342.73
2019-01-11T02:22:04.024Z,101328.09
2019-01-11T02:24:30.789Z,101325.05
2019-01-11T02:26:57.527Z,101322.00
2019-01-11T02:29:24.387Z,101318.80
2019-01-11T02:31:51.059Z,101318.22
2019-01-11T02:34:17.822Z,101310.40
2019-01-11T02:36:44.569Z,101313.72
2019-01-11T02:39:11.344Z,101299.86
2019-01-11T02:41:38.097Z,101297.00
2019-01-11T02:44:04.873Z,101303.17
2019-01-11T02:46:31.618Z,101297.53
2019-01-11T02:48:58.392Z,101289.22
2019-01-11T02:51:25.187Z,101301.11
2019-01-11T02:53:51.917Z,101308.03
2019-01-11T02:56:18.672Z,101306.05
2019-01-11T02:58:45.431Z,101299.95
2019-01-11T03:01:12.172Z,101297.15
2019-01-11T03:03:38.928Z,101303.22
2019-01-11T03:06:05.712Z,101294.19
2019-01-11T03:08:32.480Z,101302.21
2019-01-11T03:10:59.245Z,101289.14
2019-01-11T03:13:26.014Z,101298.94
2019-01-11T03:15:52.789Z,101297.94
2019-01-11T03:18:19.677Z,101301.39
2019-01-11T03:20:46.450Z,101304.10
2019-01-11T03:23:13.197Z,101308.08
2019-01-11T03:25:39.956Z,101297.02
2019-01-11T03:28:06.704Z,101292.84
2019-01-11T03:30:33.517Z,101288.26
2019-01-11T03:33:00.240Z,101285.37
2019-01-11T03:35:27.013Z,101292.50
2019-01-11T03:37:53.752Z,101289.26
2019-01-11T03:40:22.621Z,101287.20
2019-01-11T03:42:49.458Z,101283.89
2019-01-11T03:45:16.788Z,101283.09
2019-01-11T03:47:43.578Z,101286.78
2019-01-11T03:50:10.828Z,101286.56
2019-01-11T03:52:37.633Z,101287.09
2019-01-11T03:55:06.308Z,101286.59
2019-01-11T03:57:33.073Z,101282.89
2019-01-11T03:59:59.810Z,101288.45
2019-01-11T04:02:26.574Z,101285.33
2019-01-11T04:04:53.421Z,101290.77
2019-01-11T04:07:20.176Z,101295.70
2019-01-11T04:09:46.919Z,101290.03
2019-01-11T04:12:13.719Z,101297.02
2019-01-11T04:14:40.472Z,101304.13
2019-01-11T04:17:07.244Z,101298.63
2019-01-11T04:19:34.024Z,101302.84
2019-01-11T04:22:06.400Z,101297.80
2019-01-11T04:24:40.786Z,101303.73
2019-01-11T04:27:07.516Z,101298.37
2019-01-11T04:29:34.256Z,101295.38
2019-01-11T04:32:00.998Z,101291.52
2019-01-11T04:34:27.782Z,101293.95
2019-01-11T04:36:54.527Z,101288.03
2019-01-11T04:39:21.304Z,101296.30
2019-01-11T04:41:48.046Z,101293.73
2019-01-11T04:44:14.813Z,101295.55
2019-01-11T04:46:41.557Z,101286.69
2019-01-11T04:49:08.340Z,101294.52
2019-01-11T04:51:35.094Z,101293.86
2019-01-11T04:54:01.880Z,101292.62
2019-01-11T04:56:28.624Z,101286.17
2019-01-11T04:58:55.401Z,101291.52
2019-01-11T05:01:22.149Z,101293.62
2019-01-11T05:03:48.906Z,101292.92
2019-01-11T05:06:15.682Z,101288.12
2019-01-11T05:08:42.424Z,101289.34
2019-01-11T05:11:09.239Z,101282.05
2019-01-11T05:13:38.659Z,101289.69
2019-01-11T05:16:05.443Z,101294.86
2019-01-11T05:18:32.184Z,101288.38
2019-01-11T05:20:58.956Z,101288.19
2019-01-11T05:23:25.771Z,101286.66
2019-01-11T05:25:52.544Z,101289.71
2019-01-11T05:28:19.276Z,101287.42
2019-01-11T05:30:46.048Z,101287.71
2019-01-11T05:33:12.801Z,101292.67
2019-01-11T05:35:39.549Z,101291.33
2019-01-11T05:38:06.322Z,101288.90
2019-01-11T05:40:33.084Z,101295.93
2019-01-11T05:42:59.839Z,101294.40
2019-01-11T05:45:26.584Z,101300.28
2019-01-11T05:47:53.372Z,101290.14
2019-01-11T05:50:24.067Z,101290.46
2019-01-11T05:52:46.938Z,101290.94
2019-01-11T05:55:20.777Z,101290.42
2019-01-11T05:58:07.160Z,101284.93
2019-01-11T06:00:33.921Z,101300.34
2019-01-11T06:03:00.704Z,101296.11
2019-01-11T06:05:27.461Z,101294.52
2019-01-11T06:07:56.245Z,101293.89
2019-01-11T06:10:23.017Z,101293.58
2019-01-11T06:12:49.811Z,101298.24
2019-01-11T06:15:16.558Z,101291.88
2019-01-11T06:17:43.315Z,101299.25
2019-01-11T06:20:12.695Z,101296.95
2019-01-11T06:22:39.460Z,101290.24
2019-01-11T06:25:06.216Z,101296.06
2019-01-11T06:27:32.985Z,101294.58
2019-01-11T06:29:59.734Z,101290.11
2019-01-11T06:32:26.500Z,101290.95
2019-01-11T06:34:53.256Z,101287.27
2019-01-11T06:37:20.020Z,101291.69
2019-01-11T06:39:46.771Z,101276.72
2019-01-11T06:42:22.068Z,101286.39
2019-01-11T06:44:48.792Z,101283.20
2019-01-11T06:47:17.141Z,101295.02
2019-01-11T06:49:42.352Z,101289.98
2019-01-11T06:52:09.132Z,101294.14
2019-01-11T06:54:35.904Z,101288.83
2019-01-11T06:57:02.683Z,101293.52
2019-01-11T06:59:29.428Z,101283.48
2019-01-11T07:01:56.320Z,101280.28
2019-01-11T07:04:23.084Z,101289.75
2019-01-11T07:06:49.852Z,101290.93
2019-01-11T07:09:16.596Z,101295.34
2019-01-11T07:11:43.332Z,101291.78
2019-01-11T07:14:10.110Z,101294.21
2019-01-11T07:16:36.857Z,101295.77
2019-01-11T07:19:03.618Z,101293.88
2019-01-11T07:21:30.377Z,101291.70
2019-01-11T07:23:57.144Z,101294.34
2019-01-11T07:26:23.889Z,101289.38
2019-01-11T07:28:50.660Z,101292.02
2019-01-11T07:31:20.752Z,101292.02
2019-01-11T07:33:47.528Z,101295.08
2019-01-11T07:36:20.000Z,101297.23
2019-01-11T07:38:46.770Z,101297.80
2019-01-11T07:41:13.504Z,101299.64
2019-01-11T07:43:40.292Z,101304.51
2019-01-11T07:46:07.043Z,101298.89
2019-01-11T07:48:33.802Z,101303.55
2019-01-11T07:51:00.557Z,101299.64
2019-01-11T07:53:27.335Z,101308.23
2019-01-11T07:55:54.076Z,101302.64
2019-01-11T07:58:20.845Z,101303.70
2019-01-11T08:00:47.596Z,101302.16
2019-01-11T08:03:14.368Z,101305.28
2019-01-11T08:05:41.114Z,101295.41
2019-01-11T08:08:07.896Z,101291.52
2019-01-11T08:10:34.652Z,101299.97
2019-01-11T08:13:01.416Z,101296.78
2019-01-11T08:15:28.169Z,101293.69
2019-01-11T08:17:54.932Z,101289.40
2019-01-11T08:20:21.668Z,101292.23
2019-01-11T08:22:48.428Z,101287.55
2019-01-11T08:25:15.159Z,101285.08
2019-01-11T08:27:42.057Z,101287.67
2019-01-11T08:30:11.156Z,101292.16
2019-01-11T08:32:37.881Z,101296.46
2019-01-11T08:35:05.193Z,101294.75
2019-01-11T08:37:31.932Z,101301.56
2019-01-11T08:39:58.700Z,101297.09
2019-01-11T08:42:25.436Z,101293.96
2019-01-11T08:44:52.200Z,101293.63
2019-01-11T08:47:18.940Z,101293.49
2019-01-11T08:49:45.716Z,101299.58
2019-01-11T08:52:12.556Z,101298.35
2019-01-11T08:54:39.412Z,101294.86
2019-01-11T08:57:06.164Z,101296.61
2019-01-11T08:59:32.929Z,101295.52
2019-01-11T09:01:59.684Z,101300.23
2019-01-11T09:04:27.784Z,101289.37
2019-01-11T09:06:53.199Z,101283.06
2019-01-11T09:09:19.989Z,101282.42
2019-01-11T09:11:46.736Z,101279.44
2019-01-11T09:14:34.064Z,101282.11
2019-01-11T09:17:00.820Z,101285.03
2019-01-11T09:19:27.588Z,101284.86
2019-01-11T09:21:54.320Z,101291.43
2019-01-11T09:24:21.092Z,101298.95
2019-01-11T09:26:47.833Z,101309.58
2019-01-11T09:29:14.600Z,101297.58
2019-01-11T09:31:41.340Z,101299.38
2019-01-11T09:34:08.109Z,101305.49
2019-01-11T09:36:34.865Z,101301.87
2019-01-11T09:39:01.636Z,101300.20
2019-01-11T09:41:28.376Z,101302.06
2019-01-11T09:43:55.140Z,101295.72
2019-01-11T09:46:21.918Z,101303.46
2019-01-11T09:48:48.681Z,101301.81
2019-01-11T09:51:15.838Z,101295.30
2019-01-11T09:53:42.190Z,101290.63
2019-01-11T09:56:08.953Z,101284.28
2019-01-11T09:58:35.720Z,101291.94
2019-01-11T10:01:02.515Z,101283.58
2019-01-11T10:03:29.265Z,101284.66
2019-01-11T10:05:56.042Z,101281.34
2019-01-11T10:08:22.831Z,101283.65
2019-01-11T10:10:49.596Z,101277.43
2019-01-11T10:13:16.323Z,101283.77
2019-01-11T10:15:43.113Z,101283.95
2019-01-11T10:18:09.835Z,101279.67
2019-01-11T10:20:36.611Z,101276.59
2019-01-11T10:23:03.364Z,101282.56
2019-01-11T10:25:30.123Z,101276.78
2019-01-11T10:27:56.888Z,101274.43
2019-01-11T10:30:23.658Z,101268.03
2019-01-11T10:32:50.449Z,101269.31
2019-01-11T10:35:17.203Z,101265.45
2019-01-11T10:37:44.070Z,101273.39
2019-01-11T10:40:12.364Z,101269.03
2019-01-11T10:42:39.702Z,101264.52
2019-01-11T10:45:08.156Z,101269.62
2019-01-11T10:47:34.908Z,101257.14
2019-01-11T10:50:01.676Z,101261.70
2019-01-11T10:52:28.432Z,101265.27
2019-01-11T10:54:55.184Z,101258.73
2019-01-11T10:57:21.925Z,101250.23
2019-01-11T10:59:48.688Z,101247.61
2019-01-11T11:02:15.425Z,101242.53
2019-01-11T11:04:42.184Z,101247.64
2019-01-11T11:07:08.952Z,101235.61
2019-01-11T11:09:35.812Z,101234.41
2019-01-11T11:12:02.568Z,101229.94
2019-01-11T11:14:29.381Z,101236.51
2019-01-11T11:16:56.148Z,101230.31
2019-01-11T11:19:23.473Z,101235.00
2019-01-11T11:21:50.208Z,101232.34
2019-01-11T11:24:16.957Z,101230.61
2019-01-11T11:26:43.720Z,101226.37
2019-01-11T11:29:10.456Z,101221.95
2019-01-11T11:31:37.243Z,101210.11
2019-01-11T11:34:03.980Z,101219.31
2019-01-11T11:36:30.745Z,101214.30
2019-01-11T11:38:57.489Z,101212.23
2019-01-11T11:41:24.256Z,101201.00
2019-01-11T11:43:50.988Z,101197.61
2019-01-11T11:46:17.753Z,101199.44
2019-01-11T11:48:44.492Z,101190.16
2019-01-11T11:51:11.264Z,101194.23
2019-01-11T11:53:38.006Z,101209.08
2019-01-11T11:56:04.765Z,101193.08
2019-01-11T11:58:31.602Z,101191.42
2019-01-11T12:00:58.353Z,101197.77
2019-01-11T12:03:25.085Z,101194.84
2019-01-11T12:05:52.153Z,101191.38
2019-01-11T12:08:18.921Z,101185.09
2019-01-11T12:10:45.699Z,101192.19
2019-01-11T12:13:12.457Z,101197.94
2019-01-11T12:15:39.226Z,101195.11
2019-01-11T12:18:06.148Z,101188.42
2019-01-11T12:20:32.928Z,101196.45
2019-01-11T12:22:59.676Z,101193.95
2019-01-11T12:25:26.428Z,101194.08
2019-01-11T12:27:53.176Z,101195.47
2019-01-11T12:30:19.917Z,101180.58
2019-01-11T12:32:46.692Z,101184.58
2019-01-11T12:35:13.538Z,101177.82
2019-01-11T12:37:40.386Z,101181.95
2019-01-11T12:40:08.508Z,101173.44
2019-01-11T12:42:35.261Z,101168.98
2019-01-11T12:45:02.017Z,101165.31
2019-01-11T12:47:28.777Z,101162.05
2019-01-11T12:49:55.503Z,101158.14
2019-01-11T12:52:22.252Z,101157.38
2019-01-11T12:54:49.007Z,101157.77
2019-01-11T12:57:15.753Z,101142.80
2019-01-11T12:59:42.498Z,101151.30
2019-01-11T13:02:09.273Z,101152.30
2019-01-11T13:04:36.132Z,101145.83
2019-01-11T13:07:02.924Z,101145.89
2019-01-11T13:09:29.685Z,101142.56
2019-01-11T13:11:56.661Z,101143.66
2019-01-11T13:14:23.497Z,101140.84
2019-01-11T13:16:50.288Z,101149.53
2019-01-11T13:19:17.198Z,101145.36
2019-01-11T13:21:44.057Z,101146.64
2019-01-11T13:24:10.796Z,101146.42
2019-01-11T13:26:37.660Z,101138.08
2019-01-11T13:29:04.416Z,101136.98
2019-01-11T13:31:31.177Z,101129.39
2019-01-11T13:33:57.959Z,101135.78
2019-01-11T13:36:24.724Z,101143.31
2019-01-11T13:38:51.464Z,101143.13
2019-01-11T13:41:18.216Z,101142.30
2019-01-11T13:43:45.013Z,101138.34
2019-01-11T13:46:11.764Z,101141.09
2019-01-11T13:48:38.524Z,101135.45
2019-01-11T13:51:05.266Z,101135.72
2019-01-11T13:53:32.044Z,101136.30
2019-01-11T13:55:58.792Z,101137.05
2019-01-11T13:58:25.556Z,101141.17
2019-01-11T14:00:52.292Z,101141.22
2019-01-11T14:03:19.057Z,101139.67
2019-01-11T14:05:45.864Z,101143.18
2019-01-11T14:08:12.624Z,101145.92
2019-01-11T14:10:39.360Z,101142.61
2019-01-11T14:13:06.206Z,101140.25
2019-01-11T14:15:33.040Z,101147.33
2019-01-11T14:17:59.808Z,101153.48
2019-01-11T14:20:26.552Z,101153.56
2019-01-11T14:22:53.372Z,101152.20
2019-01-11T14:25:20.108Z,101152.24
2019-01-11T14:27:46.887Z,101154.68
2019-01-11T14:30:14.126Z,101147.55
2019-01-11T14:32:40.917Z,101146.82
2019-01-11T14:35:07.784Z,101151.48
2019-01-11T14:37:36.079Z,101148.17
2019-01-11T14:40:04.288Z,101160.52
2019-01-11T14:42:31.073Z,101155.33
2019-01-11T14:44:57.820Z,101157.64
2019-01-11T14:47:24.583Z,101155.41
2019-01-11T14:49:51.324Z,101154.13
2019-01-11T14:52:20.486Z,101158.92
2019-01-11T14:54:44.852Z,101168.47
2019-01-11T14:57:11.610Z,101163.92
2019-01-11T14:59:38.380Z,101162.77
2019-01-11T15:02:05.129Z,101159.95
2019-01-11T15:04:31.905Z,101174.84
2019-01-11T15:06:58.660Z,101163.36
2019-01-11T15:09:25.444Z,101163.39
2019-01-11T15:11:52.265Z,101167.58
2019-01-11T15:14:19.025Z,101164.29
2019-01-11T15:16:45.786Z,101161.98
2019-01-11T15:19:14.449Z,101158.21
2019-01-11T15:21:39.376Z,101158.02
2019-01-11T15:24:06.145Z,101165.87
2019-01-11T15:26:32.893Z,101169.72
2019-01-11T15:28:59.686Z,101169.09
2019-01-11T15:31:26.597Z,101169.99
2019-01-11T15:33:53.456Z,101168.92
2019-01-11T15:36:20.201Z,101157.20
2019-01-11T15:38:46.984Z,101160.41
2019-01-11T15:41:13.840Z,101161.66
2019-01-11T15:43:40.641Z,101161.09
2019-01-11T15:46:07.400Z,101164.75
2019-01-11T15:48:48.202Z,101157.25
2019-01-11T15:51:17.575Z,101162.43
2019-01-11T15:53:44.346Z,101161.14
2019-01-11T15:56:11.544Z,101163.77
2019-01-11T15:58:38.313Z,101165.87
2019-01-11T16:01:05.161Z,101168.55
2019-01-11T16:03:32.045Z,101164.87
2019-01-11T16:06:10.505Z,101169.16
2019-01-11T16:09:00.980Z,101155.77
2019-01-11T16:11:40.644Z,101159.97
2019-01-11T16:14:18.964Z,101151.02
2019-01-11T16:16:56.669Z,101151.13
2019-01-11T16:19:23.480Z,101145.63
2019-01-11T16:21:50.285Z,101147.86
2019-01-11T16:24:17.072Z,101145.80
2019-01-11T16:26:43.816Z,101144.64
2019-01-11T16:29:10.581Z,101142.28
2019-01-11T16:31:37.346Z,101145.67
2019-01-11T16:34:04.117Z,101140.87
2019-01-11T16:36:30.849Z,101132.75
2019-01-11T16:38:57.762Z,101140.06
2019-01-11T16:41:24.884Z,101138.31
2019-01-11T16:43:51.752Z,101141.91
2019-01-11T16:46:18.592Z,101130.02
2019-01-11T16:48:45.257Z,101125.05
2019-01-11T16:51:12.031Z,101131.83
2019-01-11T16:53:38.764Z,101133.91
2019-01-11T16:56:05.509Z,101141.97
2019-01-11T16:58:32.269Z,101143.11
2019-01-11T17:00:59.017Z,101144.41
2019-01-11T17:03:25.793Z,101137.76
2019-01-11T17:05:52.544Z,101139.75
2019-01-11T17:08:20.118Z,101145.50
2019-01-11T17:10:46.063Z,101141.68
2019-01-11T17:13:12.817Z,101136.16
2019-01-11T17:15:39.585Z,101145.66
2019-01-11T17:18:06.400Z,101145.24
2019-01-11T17:20:33.180Z,101148.08
2019-01-11T17:22:59.934Z,101143.55
2019-01-11T17:25:26.694Z,101142.36
2019-01-11T17:27:53.461Z,101139.95
2019-01-11T17:30:20.233Z,101149.64
2019-01-11T17:32:47.052Z,101149.66
2019-01-11T17:35:13.760Z,101145.66
2019-01-11T17:37:40.511Z,101152.09
2019-01-11T17:40:08.602Z,101140.38
2019-01-11T17:42:35.368Z,101146.31
2019-01-11T17:45:02.132Z,101147.80
2019-01-11T17:47:28.880Z,101147.99
2019-01-11T17:50:01.104Z,101145.44
2019-01-11T17:52:22.420Z,101154.52
2019-01-11T17:54:49.188Z,101149.19
2019-01-11T17:57:15.989Z,101153.86
2019-01-11T17:59:42.773Z,101151.56
2019-01-11T18:02:09.528Z,101157.01
2019-01-11T18:04:36.302Z,101145.38
2019-01-11T18:07:03.070Z,101141.07
2019-01-11T18:09:29.840Z,101151.17
2019-01-11T18:11:56.608Z,101155.95
2019-01-11T18:14:23.408Z,101151.30
2019-01-11T18:16:50.157Z,101156.61
2019-01-11T18:19:16.985Z,101159.25
2019-01-11T18:21:43.748Z,101153.05
2019-01-11T18:24:10.523Z,101143.55
2019-01-11T18:26:37.268Z,101142.28
2019-01-11T18:29:05.937Z,101147.41
2019-01-11T18:31:32.705Z,101140.38
2019-01-11T18:33:59.465Z,101138.33
2019-01-11T18:36:26.233Z,101139.61
2019-01-11T18:38:52.975Z,101134.53
2019-01-11T18:41:19.764Z,101136.71
2019-01-11T18:43:46.512Z,101132.87
2019-01-11T18:46:13.283Z,101144.03
2019-01-11T18:48:40.037Z,101142.16
2019-01-11T18:51:06.818Z,101140.19
2019-01-11T18:53:33.556Z,101142.02
2019-01-11T18:56:05.425Z,101144.86
2019-01-11T18:58:27.100Z,101144.22
2019-01-11T19:00:53.868Z,101150.10
2019-01-11T19:03:20.692Z,101139.16
2019-01-11T19:05:48.647Z,101150.81
2019-01-11T19:08:14.198Z,101150.92
2019-01-11T19:10:40.965Z,101150.92
2019-01-11T19:13:07.724Z,101151.30
2019-01-11T19:15:34.522Z,101150.16
2019-01-11T19:18:01.276Z,101153.65
2019-01-11T19:20:29.232Z,101152.45
2019-01-11T19:22:56.470Z,101150.78
2019-01-11T19:25:23.266Z,101148.22
2019-01-11T19:27:50.401Z,101143.30
2019-01-11T19:30:20.703Z,101156.69
2019-01-11T19:32:47.460Z,101158.20
2019-01-11T19:35:14.220Z,101154.95
2019-01-11T19:37:40.978Z,101158.62
2019-01-11T19:40:07.788Z,101154.23
2019-01-11T19:42:34.621Z,101156.13
2019-01-11T19:45:01.406Z,101155.83
2019-01-11T19:47:28.128Z,101154.94
2019-01-11T19:49:54.864Z,101154.78
2019-01-11T19:52:21.641Z,101157.10
2019-01-11T19:54:48.388Z,101158.36
2019-01-11T19:57:15.144Z,101158.97
2019-01-11T19:59:41.920Z,101158.52
2019-01-11T20:02:08.672Z,101161.63
2019-01-11T20:04:35.468Z,101154.23
2019-01-11T20:07:02.237Z,101153.20
2019-01-11T20:09:29.042Z,101150.45
2019-01-11T20:11:55.814Z,101158.56
2019-01-11T20:14:22.557Z,101154.52
2019-01-11T20:16:49.312Z,101156.16
2019-01-11T20:19:16.069Z,101154.46
2019-01-11T20:21:42.873Z,101157.66
2019-01-11T20:24:09.621Z,101157.36
2019-01-11T20:26:36.380Z,101152.67
2019-01-11T20:29:03.145Z,101158.97
2019-01-11T20:31:29.913Z,101154.72
2019-01-11T20:33:56.680Z,101150.11
2019-01-11T20:36:23.434Z,101157.69
2019-01-11T20:38:50.164Z,101147.15
2019-01-11T20:41:17.000Z,101152.67
2019-01-11T20:43:43.742Z,101141.53
2019-01-11T20:46:10.501Z,101149.34
2019-01-11T20:48:37.251Z,101155.36
2019-01-11T20:51:04.006Z,101158.42
2019-01-11T20:53:30.746Z,101154.78
2019-01-11T20:55:57.529Z,101148.28
2019-01-11T20:58:24.268Z,101157.10
2019-01-11T21:00:51.021Z,101155.42
2019-01-11T21:03:17.795Z,101152.86
2019-01-11T21:05:44.533Z,101155.16
2019-01-11T21:08:11.289Z,101156.51
2019-01-11T21:10:38.047Z,101158.17
2019-01-11T21:13:04.807Z,101162.52
2019-01-11T21:15:31.540Z,101167.88
2019-01-11T21:17:58.309Z,101160.95
2019-01-11T21:20:26.293Z,101165.47
2019-01-11T21:22:51.831Z,101168.83
2019-01-11T21:25:18.612Z,101166.66
2019-01-11T21:27:45.400Z,101170.39
2019-01-11T21:30:15.008Z,101165.91
2019-01-11T21:32:41.789Z,101173.92
2019-01-11T21:35:08.533Z,101163.36
2019-01-11T21:37:35.297Z,101156.16
2019-01-11T21:40:02.068Z,101154.97
2019-01-11T21:42:28.832Z,101153.44
2019-01-11T21:44:55.637Z,101146.27
2019-01-11T21:47:22.492Z,101151.06
2019-01-11T21:49:49.240Z,101158.56
2019-01-11T21:52:16.134Z,101158.17
2019-01-11T21:54:42.872Z,101161.02
2019-01-11T21:57:09.638Z,101152.54
2019-01-11T21:59:36.376Z,101145.05
2019-01-11T22:02:03.145Z,101155.23
2019-01-11T22:04:29.895Z,101159.53
2019-01-11T22:06:56.684Z,101153.40
2019-01-11T22:09:23.441Z,101153.34
2019-01-11T22:11:50.204Z,101155.77
2019-01-11T22:14:16.976Z,101146.48
2019-01-11T22:16:43.760Z,101154.10
2019-01-11T22:19:10.500Z,101163.67
2019-01-11T22:21:37.273Z,101154.08
2019-01-11T22:24:04.009Z,101146.30
2019-01-11T22:26:30.772Z,101157.41
2019-01-11T22:28:57.519Z,101159.55
2019-01-11T22:31:24.277Z,101165.92
2019-01-11T22:33:51.041Z,101163.23
2019-01-11T22:36:17.784Z,101169.78
2019-01-11T22:38:44.544Z,101170.34
2019-01-11T22:41:11.301Z,101172.86
2019-01-11T22:43:38.073Z,101166.20
2019-01-11T22:46:04.814Z,101162.54
2019-01-11T22:48:31.580Z,101167.58
2019-01-11T22:50:58.400Z,101166.02
2019-01-11T22:53:25.177Z,101166.91
2019-01-11T22:55:51.921Z,101174.50
2019-01-11T22:58:18.672Z,101172.22
2019-01-11T23:00:57.630Z,101170.20
2019-01-11T23:03:29.425Z,101165.47
2019-01-11T23:06:09.172Z,101163.97
2019-01-11T23:08:33.356Z,101171.62
2019-01-11T23:11:27.905Z,101174.91
2019-01-11T23:13:54.684Z,101183.69
2019-01-11T23:16:28.216Z,101188.75
2019-01-11T23:18:56.553Z,101185.66
2019-01-11T23:21:23.291Z,101190.31
2019-01-11T23:23:50.048Z,101181.45
2019-01-11T23:26:16.888Z,101187.62
2019-01-11T23:28:43.657Z,101192.83
2019-01-11T23:31:10.425Z,101188.64
2019-01-11T23:33:37.216Z,101195.96
2019-01-11T23:36:03.944Z,101194.02
2019-01-11T23:38:30.716Z,101195.19
2019-01-11T23:40:57.456Z,101190.05
2019-01-11T23:43:24.232Z,101181.22
2019-01-11T23:45:50.976Z,101174.37
2019-01-11T23:48:17.746Z,101189.06
2019-01-11T23:50:44.494Z,101183.20
2019-01-11T23:53:11.263Z,101179.42
2019-01-11T23:55:38.016Z,101175.87
2019-01-11T23:58:04.795Z,101181.28
